createdAt,value
2023-01-18T00:01:16.165Z,100.00
2023-01-18T00:03:44.276Z,100.00
2023-01-18T00:06:12.875Z,100.00
2023-01-18T00:08:42.613Z,100.00
2023-01-18T00:11:15.380Z,100.00
2023-01-18T00:13:43.894Z,100.00
2023-01-18T00:16:14.149Z,100.00
2023-01-18T00:18:42.442Z,100.00
2023-01-18T00:21:13.249Z,100.00
2023-01-18T00:23:41.408Z,100.00
2023-01-18T00:26:12.605Z,100.00
2023-01-18T00:28:41.604Z,100.00
2023-01-18T00:31:13.753Z,100.00
2023-01-18T00:33:44.009Z,100.00
2023-01-18T00:36:13.357Z,100.00
2023-01-18T00:38:41.603Z,100.00
2023-01-18T00:41:11.051Z,100.00
2023-01-18T00:43:40.718Z,100.00
2023-01-18T00:46:09.651Z,100.00
2023-01-18T00:48:38.900Z,100.00
2023-01-18T00:51:07.940Z,100.00
2023-01-18T00:53:41.113Z,100.00
2023-01-18T00:56:12.317Z,100.00
2023-01-18T00:58:40.652Z,100.00
2023-01-18T01:01:09.883Z,100.00
2023-01-18T01:03:52.114Z,100.00
2023-01-18T01:06:43.472Z,100.00
2023-01-18T01:09:12.230Z,100.00
2023-01-18T01:12:01.803Z,100.00
2023-01-18T01:14:47.637Z,100.00
2023-01-18T01:17:33.005Z,100.00
2023-01-18T01:20:18.570Z,100.00
2023-01-18T01:23:03.975Z,100.00
2023-01-18T01:25:49.615Z,100.00
2023-01-18T01:28:19.248Z,100.00
2023-01-18T01:30:47.581Z,100.00
2023-01-18T01:33:15.813Z,100.00
2023-01-18T01:35:44.321Z,100.00
2023-01-18T01:38:12.515Z,100.00
2023-01-18T01:40:40.663Z,100.00
2023-01-18T01:43:13.836Z,100.00
2023-01-18T01:45:43.419Z,100.00
2023-01-18T01:48:12.223Z,100.00
2023-01-18T01:50:41.829Z,100.00
2023-01-18T01:53:12.027Z,100.00
2023-01-18T01:55:41.938Z,100.00
2023-01-18T01:58:14.441Z,100.00
2023-01-18T02:00:45.196Z,100.00
2023-01-18T02:03:19.250Z,100.00
2023-01-18T02:05:49.837Z,100.00
2023-01-18T02:08:23.417Z,100.00
2023-01-18T02:10:52.523Z,100.00
2023-01-18T02:13:22.338Z,100.00
2023-01-18T02:16:03.237Z,100.00
2023-01-18T02:18:37.022Z,100.00
2023-01-18T02:21:14.136Z,100.00
2023-01-18T02:24:14.395Z,100.00
2023-01-18T02:26:53.892Z,100.00
2023-01-18T02:29:35.493Z,100.00
2023-01-18T02:32:20.166Z,100.00
2023-01-18T02:34:51.113Z,100.00
2023-01-18T02:37:27.537Z,100.00
2023-01-18T02:40:10.281Z,100.00
2023-01-18T02:42:58.021Z,100.00
2023-01-18T02:45:50.339Z,100.00
2023-01-18T02:48:23.633Z,100.00
2023-01-18T02:50:52.382Z,100.00
2023-01-18T02:53:20.518Z,100.00
2023-01-18T02:55:55.103Z,100.00
2023-01-18T02:58:29.387Z,100.00
2023-01-18T03:01:04.525Z,100.00
2023-01-18T03:03:33.089Z,100.00
2023-01-18T03:06:03.273Z,100.00
2023-01-18T03:08:38.527Z,100.00
2023-01-18T03:11:13.478Z,100.00
2023-01-18T03:13:53.430Z,100.00
2023-01-18T03:16:25.164Z,100.00
2023-01-18T03:19:03.073Z,100.00
2023-01-18T03:21:42.397Z,100.00
2023-01-18T03:24:10.911Z,100.00
2023-01-18T03:26:44.077Z,100.00
2023-01-18T03:29:33.200Z,100.00
2023-01-18T03:32:26.870Z,100.00
2023-01-18T03:34:59.817Z,100.00
2023-01-18T03:37:31.645Z,100.00
2023-01-18T03:40:04.669Z,100.00
2023-01-18T03:42:38.298Z,100.00
2023-01-18T03:45:12.502Z,100.00
2023-01-18T03:47:42.302Z,100.00
2023-01-18T03:50:11.259Z,100.00
2023-01-18T03:52:43.403Z,100.00
2023-01-18T03:55:19.275Z,100.00
2023-01-18T03:57:51.442Z,100.00
2023-01-18T04:00:20.824Z,100.00
2023-01-18T04:02:51.853Z,100.00
2023-01-18T04:05:20.227Z,100.00
2023-01-18T04:07:48.659Z,100.00
2023-01-18T04:10:16.950Z,100.00
2023-01-18T04:12:45.100Z,100.00
2023-01-18T04:15:13.582Z,100.00
2023-01-18T04:17:41.741Z,100.00
2023-01-18T04:20:12.552Z,100.00
2023-01-18T04:22:40.764Z,100.00
2023-01-18T04:25:09.548Z,100.00
2023-01-18T04:27:37.660Z,100.00
2023-01-18T04:30:06.885Z,100.00
2023-01-18T04:32:34.965Z,100.00
2023-01-18T04:35:03.221Z,100.00
2023-01-18T04:37:34.209Z,100.00
2023-01-18T04:40:02.454Z,100.00
2023-01-18T04:42:30.837Z,100.00
2023-01-18T04:45:00.044Z,100.00
2023-01-18T04:47:29.723Z,100.00
2023-01-18T04:49:58.838Z,100.00
2023-01-18T04:52:27.113Z,100.00
2023-01-18T04:54:57.012Z,100.00
2023-01-18T04:57:25.789Z,100.00
2023-01-18T04:59:53.962Z,100.00
2023-01-18T05:02:22.186Z,100.00
2023-01-18T05:04:50.346Z,100.00
2023-01-18T05:07:18.697Z,100.00
2023-01-18T05:09:46.883Z,100.00
2023-01-18T05:12:18.859Z,100.00
2023-01-18T05:14:47.349Z,100.00
2023-01-18T05:17:15.802Z,100.00
2023-01-18T05:19:43.991Z,100.00
2023-01-18T05:22:12.159Z,100.00
2023-01-18T05:24:40.344Z,100.00
2023-01-18T05:27:08.645Z,100.00
2023-01-18T05:29:40.906Z,100.00
2023-01-18T05:32:10.807Z,100.00
2023-01-18T05:34:39.048Z,100.00
2023-01-18T05:37:07.738Z,100.00
2023-01-18T05:39:36.540Z,100.00
2023-01-18T05:42:05.534Z,100.00
2023-01-18T05:44:33.956Z,100.00
2023-01-18T05:47:03.682Z,100.00
2023-01-18T05:49:33.217Z,100.00
2023-01-18T05:52:01.319Z,100.00
2023-01-18T05:54:29.536Z,100.00
2023-01-18T05:56:58.417Z,100.00
2023-01-18T05:59:26.811Z,100.00
2023-01-18T06:01:54.869Z,100.00
2023-01-18T06:04:24.940Z,100.00
2023-01-18T06:06:54.094Z,100.00
2023-01-18T06:09:22.460Z,100.00
2023-01-18T06:11:50.872Z,100.00
2023-01-18T06:14:19.034Z,100.00
2023-01-18T06:16:47.422Z,100.00
2023-01-18T06:19:15.781Z,100.00
2023-01-18T06:21:45.421Z,100.00
2023-01-18T06:24:13.973Z,100.00
2023-01-18T06:26:42.147Z,100.00
2023-01-18T06:29:10.508Z,100.00
2023-01-18T06:31:39.299Z,100.00
2023-01-18T06:34:09.568Z,100.00
2023-01-18T06:36:38.176Z,100.00
2023-01-18T06:39:08.179Z,100.00
2023-01-18T06:41:36.418Z,100.00
2023-01-18T06:44:04.761Z,100.00
2023-01-18T06:46:33.809Z,100.00
2023-01-18T06:49:02.018Z,100.00
2023-01-18T06:51:30.450Z,100.00
2023-01-18T06:53:58.568Z,100.00
2023-01-18T06:56:29.415Z,100.00
2023-01-18T06:58:59.588Z,100.00
2023-01-18T07:01:28.305Z,100.00
2023-01-18T07:03:57.007Z,100.00
2023-01-18T07:06:25.485Z,100.00
2023-01-18T07:08:53.828Z,100.00
2023-01-18T07:11:22.270Z,100.00
2023-01-18T07:14:10.443Z,100.00
2023-01-18T07:16:39.092Z,100.00
2023-01-18T07:19:07.366Z,100.00
2023-01-18T07:21:35.870Z,100.00
2023-01-18T07:24:03.900Z,100.00
2023-01-18T07:26:32.001Z,100.00
2023-01-18T07:29:01.909Z,100.00
2023-01-18T07:31:30.774Z,100.00
2023-01-18T07:33:59.213Z,100.00
2023-01-18T07:36:27.600Z,100.00
2023-01-18T07:38:55.876Z,100.00
2023-01-18T07:41:24.408Z,100.00
2023-01-18T07:43:54.174Z,100.00
2023-01-18T07:46:26.049Z,100.00
2023-01-18T07:48:54.675Z,100.00
2023-01-18T07:51:23.450Z,100.00
2023-01-18T07:53:55.239Z,100.00
2023-01-18T07:56:25.303Z,100.00
2023-01-18T07:58:53.973Z,100.00
2023-01-18T08:01:24.279Z,100.00
2023-01-18T08:03:54.585Z,100.00
2023-01-18T08:06:26.045Z,100.00
2023-01-18T08:08:56.717Z,100.00
2023-01-18T08:11:25.270Z,100.00
2023-01-18T08:13:53.584Z,100.00
2023-01-18T08:16:24.492Z,100.00
2023-01-18T08:18:52.674Z,100.00
2023-01-18T08:21:20.764Z,100.00
2023-01-18T08:23:48.868Z,100.00
2023-01-18T08:26:16.987Z,100.00
2023-01-18T08:28:45.686Z,100.00
2023-01-18T08:31:16.007Z,100.00
2023-01-18T08:33:48.905Z,100.00
2023-01-18T08:36:19.840Z,100.00
2023-01-18T08:38:50.325Z,100.00
2023-01-18T08:41:19.234Z,100.00
2023-01-18T08:43:51.133Z,100.00
2023-01-18T08:46:19.739Z,100.00
2023-01-18T08:48:52.189Z,100.00
2023-01-18T08:51:22.968Z,100.00
2023-01-18T08:53:51.710Z,100.00
2023-01-18T08:56:20.330Z,100.00
2023-01-18T08:58:48.638Z,100.00
2023-01-18T09:01:17.039Z,100.00
2023-01-18T09:03:47.356Z,100.00
2023-01-18T09:06:16.955Z,100.00
2023-01-18T09:08:47.870Z,100.00
2023-01-18T09:11:17.123Z,100.00
2023-01-18T09:13:59.857Z,100.00
2023-01-18T09:16:29.737Z,100.00
2023-01-18T09:18:58.739Z,100.00
2023-01-18T09:21:29.366Z,100.00
2023-01-18T09:23:59.507Z,100.00
2023-01-18T09:26:29.051Z,100.00
2023-01-18T09:28:57.600Z,97.76
2023-01-18T09:31:28.129Z,98.33
2023-01-18T09:34:12.994Z,97.30
2023-01-18T09:36:47.808Z,95.18
2023-01-18T09:39:15.934Z,95.31
2023-01-18T09:41:49.251Z,92.69
2023-01-18T09:44:23.085Z,91.38
2023-01-18T09:46:56.945Z,91.94
2023-01-18T09:49:30.324Z,90.88
2023-01-18T09:52:19.575Z,90.95
2023-01-18T09:54:55.671Z,89.26
2023-01-18T09:57:38.034Z,84.92
2023-01-18T10:00:19.869Z,75.87
2023-01-18T10:02:51.927Z,67.58
2023-01-18T10:05:24.616Z,66.54
2023-01-18T10:08:03.698Z,61.59
2023-01-18T10:10:37.771Z,60.76
2023-01-18T10:13:24.779Z,61.83
2023-01-18T10:15:53.193Z,60.50
2023-01-18T10:18:21.389Z,63.12
2023-01-18T10:20:53.054Z,64.21
2023-01-18T10:23:31.519Z,58.01
2023-01-18T10:26:04.856Z,60.33
2023-01-18T10:28:47.866Z,59.48
2023-01-18T10:31:31.277Z,52.95
2023-01-18T10:34:02.849Z,50.94
2023-01-18T10:36:38.612Z,50.80
2023-01-18T10:39:28.205Z,51.81
2023-01-18T10:42:00.832Z,51.25
2023-01-18T10:44:31.725Z,51.24
2023-01-18T10:47:01.751Z,51.28
2023-01-18T10:49:42.032Z,50.56
2023-01-18T10:52:25.665Z,50.14
2023-01-18T10:54:58.210Z,49.58
2023-01-18T10:57:30.998Z,49.83
2023-01-18T11:00:00.207Z,49.90
2023-01-18T11:02:36.257Z,50.28
2023-01-18T11:05:21.328Z,49.61
2023-01-18T11:07:49.600Z,49.11
2023-01-18T11:10:27.757Z,48.74
2023-01-18T11:12:55.868Z,48.34
2023-01-18T11:15:26.967Z,47.66
2023-01-18T11:18:06.267Z,47.87
2023-01-18T11:20:40.044Z,47.58
2023-01-18T11:23:17.958Z,47.57
2023-01-18T11:25:53.755Z,48.31
2023-01-18T11:28:24.568Z,48.91
2023-01-18T11:30:57.012Z,49.22
2023-01-18T11:33:27.584Z,49.36
2023-01-18T11:36:00.353Z,49.30
2023-01-18T11:38:31.964Z,49.53
2023-01-18T11:41:07.328Z,49.96
2023-01-18T11:43:39.472Z,49.86
2023-01-18T11:46:29.970Z,50.01
2023-01-18T11:49:07.996Z,49.88
2023-01-18T11:51:46.520Z,49.66
2023-01-18T11:54:33.221Z,49.32
2023-01-18T11:57:03.499Z,49.02
2023-01-18T11:59:35.013Z,49.05
2023-01-18T12:02:35.634Z,48.66
2023-01-18T12:05:29.772Z,48.01
2023-01-18T12:08:27.089Z,48.58
2023-01-18T12:11:08.830Z,48.79
2023-01-18T12:13:43.560Z,47.40
2023-01-18T12:16:21.286Z,47.76
2023-01-18T12:19:25.386Z,48.15
2023-01-18T12:22:13.050Z,47.20
2023-01-18T12:24:54.221Z,47.15
2023-01-18T12:27:32.776Z,47.56
2023-01-18T12:30:16.713Z,47.58
2023-01-18T12:33:06.631Z,47.27
2023-01-18T12:35:56.790Z,47.53
2023-01-18T12:38:29.161Z,47.77
2023-01-18T12:41:22.846Z,46.74
2023-01-18T12:44:11.616Z,46.46
2023-01-18T12:46:48.180Z,47.24
2023-01-18T12:49:21.535Z,47.31
2023-01-18T12:51:56.095Z,46.24
2023-01-18T12:54:32.682Z,47.31
2023-01-18T12:57:01.424Z,45.96
2023-01-18T12:59:34.824Z,46.59
2023-01-18T13:02:24.172Z,47.02
2023-01-18T13:04:58.166Z,47.50
2023-01-18T13:07:33.641Z,47.60
2023-01-18T13:10:02.192Z,47.36
2023-01-18T13:12:33.561Z,45.36
2023-01-18T13:15:07.950Z,45.29
2023-01-18T13:17:42.609Z,46.13
2023-01-18T13:20:18.982Z,46.96
2023-01-18T13:22:58.252Z,47.12
2023-01-18T13:25:41.595Z,46.56
2023-01-18T13:28:19.301Z,47.36
2023-01-18T13:30:55.739Z,47.69
2023-01-18T13:33:28.461Z,46.21
2023-01-18T13:35:59.627Z,46.18
2023-01-18T13:38:41.005Z,46.18
2023-01-18T13:41:12.696Z,47.24
2023-01-18T13:44:03.034Z,47.16
2023-01-18T13:46:34.061Z,47.55
2023-01-18T13:49:38.494Z,48.71
2023-01-18T13:52:31.498Z,49.15
2023-01-18T13:55:04.003Z,48.25
2023-01-18T13:57:35.398Z,47.97
2023-01-18T14:00:05.735Z,46.72
2023-01-18T14:02:42.548Z,47.59
2023-01-18T14:05:25.352Z,48.03
2023-01-18T14:07:57.235Z,48.58
2023-01-18T14:10:31.549Z,49.64
2023-01-18T14:13:01.609Z,49.21
2023-01-18T14:15:38.872Z,49.11
2023-01-18T14:18:19.137Z,49.50
2023-01-18T14:20:59.113Z,48.71
2023-01-18T14:23:57.590Z,48.58
2023-01-18T14:26:30.545Z,49.00
2023-01-18T14:29:02.600Z,48.74
2023-01-18T14:31:34.527Z,49.33
2023-01-18T14:34:37.149Z,49.22
2023-01-18T14:37:26.300Z,48.66
2023-01-18T14:40:14.937Z,48.10
2023-01-18T14:42:48.650Z,48.18
2023-01-18T14:45:22.011Z,48.29
2023-01-18T14:47:50.097Z,47.40
2023-01-18T14:50:22.102Z,47.66
2023-01-18T14:52:53.902Z,48.10
2023-01-18T14:55:28.493Z,46.89
2023-01-18T14:58:05.300Z,46.96
2023-01-18T15:00:33.490Z,46.71
2023-01-18T15:03:13.315Z,47.01
2023-01-18T15:05:42.971Z,47.30
2023-01-18T15:08:14.401Z,46.91
2023-01-18T15:10:45.630Z,47.43
2023-01-18T15:13:18.389Z,48.29
2023-01-18T15:15:46.958Z,48.33
2023-01-18T15:18:20.283Z,49.17
2023-01-18T15:20:57.542Z,49.47
2023-01-18T15:23:28.458Z,49.91
2023-01-18T15:25:58.971Z,50.37
2023-01-18T15:28:35.018Z,50.72
2023-01-18T15:31:07.894Z,50.47
2023-01-18T15:33:37.824Z,51.11
2023-01-18T15:36:06.783Z,52.02
2023-01-18T15:38:36.491Z,52.81
2023-01-18T15:41:10.623Z,52.63
2023-01-18T15:43:42.941Z,53.19
2023-01-18T15:46:14.139Z,53.90
2023-01-18T15:48:49.812Z,54.41
2023-01-18T15:51:18.425Z,55.10
2023-01-18T15:53:52.918Z,55.85
2023-01-18T15:56:26.133Z,55.52
2023-01-18T15:58:57.087Z,55.56
2023-01-18T16:01:28.380Z,55.65
2023-01-18T16:03:59.801Z,56.43
2023-01-18T16:06:34.249Z,57.36
2023-01-18T16:09:11.832Z,58.04
2023-01-18T16:11:46.528Z,58.49
2023-01-18T16:14:25.860Z,58.90
2023-01-18T16:16:55.745Z,57.65
2023-01-18T16:19:29.182Z,58.53
2023-01-18T16:22:00.807Z,58.01
2023-01-18T16:24:35.788Z,58.50
2023-01-18T16:27:14.424Z,58.50
2023-01-18T16:29:45.188Z,57.93
2023-01-18T16:32:34.481Z,57.77
2023-01-18T16:35:11.906Z,56.88
2023-01-18T16:37:41.499Z,55.95
2023-01-18T16:40:18.876Z,56.04
2023-01-18T16:42:59.819Z,55.58
2023-01-18T16:45:32.996Z,56.34
2023-01-18T16:48:01.535Z,57.25
2023-01-18T16:50:29.990Z,58.01
2023-01-18T16:52:58.682Z,58.57
2023-01-18T16:55:28.380Z,58.86
2023-01-18T16:57:57.442Z,59.11
2023-01-18T17:00:35.801Z,59.63
2023-01-18T17:03:04.201Z,60.13
2023-01-18T17:05:33.132Z,60.79
2023-01-18T17:08:02.328Z,61.59
2023-01-18T17:10:38.974Z,61.23
2023-01-18T17:13:07.128Z,61.64
2023-01-18T17:15:35.629Z,61.20
2023-01-18T17:18:04.763Z,62.05
2023-01-18T17:20:35.067Z,62.72
2023-01-18T17:23:03.770Z,63.47
2023-01-18T17:25:33.465Z,63.99
2023-01-18T17:28:02.061Z,64.29
2023-01-18T17:30:30.585Z,64.93
2023-01-18T17:32:59.427Z,64.39
2023-01-18T17:35:29.072Z,64.29
2023-01-18T17:38:05.050Z,64.51
2023-01-18T17:40:44.171Z,63.69
2023-01-18T17:43:17.219Z,62.45
2023-01-18T17:45:59.863Z,63.37
2023-01-18T17:48:29.783Z,64.21
2023-01-18T17:50:57.983Z,64.22
2023-01-18T17:53:26.767Z,64.78
2023-01-18T17:55:56.631Z,63.58
2023-01-18T17:58:24.853Z,62.81
2023-01-18T18:00:53.278Z,63.19
2023-01-18T18:03:22.511Z,63.83
2023-01-18T18:05:50.859Z,64.26
2023-01-18T18:08:20.045Z,65.51
2023-01-18T18:10:49.375Z,66.41
2023-01-18T18:13:19.801Z,66.72
2023-01-18T18:15:50.960Z,67.56
2023-01-18T18:18:23.152Z,67.85
2023-01-18T18:20:57.943Z,66.72
2023-01-18T18:23:27.041Z,67.57
2023-01-18T18:25:55.429Z,67.24
2023-01-18T18:28:25.405Z,67.79
2023-01-18T18:30:53.878Z,68.27
2023-01-18T18:33:23.127Z,68.93
2023-01-18T18:35:52.336Z,66.23
2023-01-18T18:38:22.997Z,65.30
2023-01-18T18:40:51.561Z,65.78
2023-01-18T18:43:20.680Z,65.52
2023-01-18T18:45:50.432Z,64.03
2023-01-18T18:48:18.619Z,64.66
2023-01-18T18:50:47.580Z,66.30
2023-01-18T18:53:16.894Z,66.04
2023-01-18T18:55:45.354Z,66.30
2023-01-18T18:58:13.863Z,65.41
2023-01-18T19:00:42.164Z,66.00
2023-01-18T19:03:11.985Z,65.08
2023-01-18T19:05:40.370Z,65.17
2023-01-18T19:08:08.679Z,64.70
2023-01-18T19:10:36.871Z,65.40
2023-01-18T19:13:05.132Z,65.79
2023-01-18T19:15:33.419Z,65.63
2023-01-18T19:18:01.539Z,66.25
2023-01-18T19:20:33.136Z,66.68
2023-01-18T19:23:02.054Z,66.82
2023-01-18T19:25:30.405Z,67.46
2023-01-18T19:27:58.509Z,67.63
2023-01-18T19:30:26.927Z,67.83
2023-01-18T19:32:55.561Z,68.68
2023-01-18T19:35:24.176Z,69.58
2023-01-18T19:37:53.985Z,70.22
2023-01-18T19:40:22.471Z,71.02
2023-01-18T19:42:54.981Z,71.87
2023-01-18T19:45:28.299Z,73.13
2023-01-18T19:48:00.135Z,73.68
2023-01-18T19:50:29.656Z,73.30
2023-01-18T19:53:03.662Z,73.37
2023-01-18T19:55:31.941Z,73.51
2023-01-18T19:58:01.690Z,74.34
2023-01-18T20:00:30.529Z,75.17
2023-01-18T20:03:00.744Z,74.28
2023-01-18T20:05:29.575Z,75.16
2023-01-18T20:08:00.525Z,76.31
2023-01-18T20:10:30.305Z,77.87
2023-01-18T20:12:59.965Z,77.74
2023-01-18T20:15:28.829Z,77.90
2023-01-18T20:17:57.167Z,78.61
2023-01-18T20:20:32.455Z,80.18
2023-01-18T20:23:05.277Z,80.70
2023-01-18T20:25:34.078Z,79.79
2023-01-18T20:28:02.320Z,80.85
2023-01-18T20:30:30.867Z,81.87
2023-01-18T20:32:59.916Z,82.21
2023-01-18T20:35:28.656Z,82.19
2023-01-18T20:37:57.281Z,82.94
2023-01-18T20:40:27.026Z,82.98
2023-01-18T20:42:55.863Z,83.99
2023-01-18T20:45:23.966Z,84.62
2023-01-18T20:47:52.130Z,85.21
2023-01-18T20:50:23.292Z,84.74
2023-01-18T20:52:51.760Z,83.79
2023-01-18T20:55:20.041Z,84.15
2023-01-18T20:57:52.261Z,83.52
2023-01-18T21:00:21.624Z,83.89
2023-01-18T21:02:49.882Z,84.69
2023-01-18T21:05:18.401Z,86.44
2023-01-18T21:07:46.627Z,88.00
2023-01-18T21:10:14.833Z,88.06
2023-01-18T21:12:43.659Z,87.54
2023-01-18T21:15:13.680Z,88.37
2023-01-18T21:17:41.743Z,88.78
2023-01-18T21:20:11.245Z,91.87
2023-01-18T21:22:39.250Z,90.16
2023-01-18T21:25:08.705Z,88.12
2023-01-18T21:27:37.011Z,90.34
2023-01-18T21:30:06.010Z,92.75
2023-01-18T21:32:35.539Z,92.51
2023-01-18T21:35:03.880Z,91.82
2023-01-18T21:37:31.926Z,91.88
2023-01-18T21:40:00.779Z,92.19
2023-01-18T21:42:46.630Z,94.30
2023-01-18T21:45:29.041Z,95.96
2023-01-18T21:48:00.038Z,95.94
2023-01-18T21:50:45.891Z,93.69
2023-01-18T21:53:34.604Z,93.28
2023-01-18T21:56:02.940Z,94.97
2023-01-18T21:58:48.489Z,95.26
2023-01-18T22:01:19.853Z,96.44
2023-01-18T22:04:08.672Z,94.73
2023-01-18T22:06:37.288Z,94.73
2023-01-18T22:09:06.087Z,96.12
2023-01-18T22:11:34.128Z,100.00
2023-01-18T22:14:03.922Z,100.00
2023-01-18T22:16:32.327Z,100.00
2023-01-18T22:19:03.249Z,100.00
2023-01-18T22:21:32.142Z,100.00
2023-01-18T22:24:00.944Z,100.00
2023-01-18T22:26:31.153Z,100.00
2023-01-18T22:28:59.831Z,100.00
2023-01-18T22:31:29.448Z,100.00
2023-01-18T22:33:58.141Z,100.00
2023-01-18T22:36:28.452Z,100.00
2023-01-18T22:38:56.652Z,100.00
2023-01-18T22:41:26.923Z,100.00
2023-01-18T22:43:56.471Z,100.00
2023-01-18T22:46:25.579Z,100.00
2023-01-18T22:48:53.918Z,100.00
2023-01-18T22:51:23.816Z,100.00
2023-01-18T22:53:53.657Z,100.00
2023-01-18T22:56:23.339Z,100.00
2023-01-18T22:58:52.171Z,100.00
2023-01-18T23:01:23.329Z,100.00
2023-01-18T23:03:51.603Z,100.00
2023-01-18T23:06:20.836Z,100.00
2023-01-18T23:08:49.821Z,100.00
2023-01-18T23:11:21.952Z,100.00
2023-01-18T23:14:05.837Z,100.00
2023-01-18T23:16:52.068Z,100.00
2023-01-18T23:19:20.426Z,100.00
2023-01-18T23:21:48.600Z,100.00
2023-01-18T23:24:16.732Z,100.00
2023-01-18T23:26:46.593Z,100.00
2023-01-18T23:29:15.661Z,100.00
2023-01-18T23:31:44.351Z,100.00
2023-01-18T23:34:12.388Z,100.00
2023-01-18T23:36:40.410Z,100.00
2023-01-18T23:39:26.146Z,100.00
2023-01-18T23:42:13.227Z,100.00
2023-01-18T23:44:59.029Z,100.00
2023-01-18T23:47:44.635Z,100.00
2023-01-18T23:50:30.584Z,100.00
2023-01-18T23:53:18.204Z,100.00
2023-01-18T23:55:46.414Z,100.00
2023-01-18T23:58:16.072Z,100.00
